Accueil
METAR-TAF:

Aéroports :

Bauru, São Paulo, Brésil

latitude: 22-19S, longitude: 049-04W, altitude: 590 m

Observation

Le bulletin a été fait il y a 2 heures et 0 minutes, à 18:00 UTC
Vent 5 kt de nord-ouest
Température 27°C
Humidité 39%
Pression 1022 hPa
Visibilité 10 km ou plus
Quelques nuages à une hauteur de 3500 ft

METAR: SBBU 291800Z 31005KT 9999 FEW035 27/12 Q1022

Heure: 17:00 (20:00 UTC)

Prévision

Le bulletin a été fait il y a 5 heures et 0 minutes, à 15:00 UTC
Prévision valable du 29 à 18 UTC au 30 à 06 UTC
Vent 7 kt de nord/nord-est
Visibilité 10 km ou plus
pas de nuages en-dessous de 1500 mètres et pas de cumulonimbus.

TAF: SBBU 291500Z 2918/3006 02007KT CAVOK TX27/2918Z TN16/3006Z RMK PDV

METAR-TAF

Observations et prévisions météorologiques de plus de 4000 aéroports (messages METAR et TAF).

Les stations disponibles sont représentées par des disques jaunes et rouges sur la carte.

Passer la souris dessus pour voir le nom de la station.

Cliquer dessus pour voir les observations et prévisions météorologiques.

Pour changer de carte: cliquez sur les boutons verts avec une croix noire pour zoomer, sur le bouton vert avec un tiret pour effectuer un zoom arrière, ou sur les flèches vertes pour les cartes adjacentes.


METAR-TAF: